Time;durP1;ratioP1;P1;durP2;ratioP2;P2;SDS_P1;SDS_P2;PMS_P1;PMS_P2;Temp;Humidity;BMP_temperature;BMP_pressure;BME280_temperature;BME280_humidity;BME280_pressure;Samples;Min_cycle;Max_cycle;Signal;HPM_P1;HPM_P2
2022/01/26 00:07:10;;;;;;;35.97;14.07;;;;;;;4.20;66.11;99682.78;4424581;32;20172;-86
2022/01/26 00:09:38;;;;;;;35.13;14.87;;;;;;;4.23;66.00;99680.13;4410556;32;20097;-86
2022/01/26 00:12:04;;;;;;;35.85;14.68;;;;;;;4.17;66.21;99679.34;4424484;32;20428;-86
2022/01/26 00:14:29;;;;;;;34.28;14.23;;;;;;;3.98;66.67;99671.78;4423933;32;20082;-86
2022/01/26 00:16:55;;;;;;;37.67;15.40;;;;;;;3.71;67.96;99686.03;4424296;32;20132;-87
2022/01/26 00:19:29;;;;;;;39.75;15.05;;;;;;;3.89;67.31;99675.38;4424188;32;20369;-86
2022/01/26 00:21:56;;;;;;;37.28;14.57;;;;;;;3.92;67.41;99674.44;4413997;32;20097;-85
2022/01/26 00:29:23;;;;;;;39.95;15.75;;;;;;;4.14;66.89;99677.66;4417353;32;20507;-86
2022/01/26 00:40:40;;;;;;;38.30;15.80;;;;;;;4.01;67.38;99673.47;4382558;32;20153;-92
2022/01/26 00:43:21;;;;;;;37.45;14.75;;;;;;;3.81;67.89;99668.53;4382263;32;20441;-93
2022/01/26 00:45:49;;;;;;;36.28;16.12;;;;;;;3.58;68.50;99661.00;4394304;32;20152;-90
2022/01/26 00:48:20;;;;;;;35.67;14.38;;;;;;;3.88;67.37;99660.63;4394219;32;20453;-89
2022/01/26 00:50:52;;;;;;;36.78;14.68;;;;;;;3.68;68.25;99675.63;4380824;32;20111;-88
2022/01/26 00:53:21;;;;;;;36.47;15.25;;;;;;;3.64;68.24;99671.34;4394454;32;20474;-90
2022/01/26 00:55:46;;;;;;;38.80;15.32;;;;;;;3.76;67.65;99672.94;4394346;32;20112;-92
2022/01/26 00:58:15;;;;;;;34.38;14.00;;;;;;;3.58;68.33;99685.31;4394517;32;20110;-92
2022/01/26 01:00:40;;;;;;;34.83;14.00;;;;;;;3.54;68.45;99671.47;4394243;32;20117;-91
2022/01/26 01:03:06;;;;;;;39.33;15.40;;;;;;;3.57;68.34;99667.94;4394527;32;20102;-91
2022/01/26 01:05:41;;;;;;;38.20;15.63;;;;;;;3.79;67.78;99673.78;4394529;32;20363;-92
2022/01/26 01:08:14;;;;;;;38.55;15.10;;;;;;;3.76;67.80;99672.94;4394453;32;20121;-93
2022/01/26 01:10:41;;;;;;;34.75;14.18;;;;;;;3.46;68.96;99668.09;4394532;32;20086;-92
2022/01/26 01:13:15;;;;;;;37.17;14.93;;;;;;;3.66;68.51;99672.19;4394234;32;20098;-91
2022/01/26 01:15:40;;;;;;;40.08;15.20;;;;;;;3.59;68.15;99666.19;4394414;32;20331;-92
2022/01/26 01:18:21;;;;;;;35.10;14.52;;;;;;;3.47;68.88;99667.19;4367858;32;20145;-92
2022/01/26 01:34:07;;;;;;;35.05;13.62;;;;;;;3.42;67.91;99683.75;4395439;32;20166;-91
2022/01/26 01:36:37;;;;;;;29.10;11.77;;;;;;;3.44;67.72;99677.66;4406923;32;20121;-92
2022/01/26 01:39:03;;;;;;;34.83;12.18;;;;;;;3.48;67.53;99671.53;4406588;32;20196;-89
2022/01/26 01:41:29;;;;;;;35.53;13.70;;;;;;;3.49;67.17;99672.38;4406710;32;20693;-91
2022/01/26 01:43:57;;;;;;;31.10;13.23;;;;;;;3.29;67.70;99676.06;4406575;32;20114;-91
2022/01/26 01:46:23;;;;;;;35.00;13.18;;;;;;;3.65;66.85;99667.84;4406575;32;20085;-92
2022/01/26 01:48:48;;;;;;;29.12;11.82;;;;;;;3.50;67.14;99664.56;4406525;32;20176;-95
2022/01/26 01:51:16;;;;;;;31.30;12.18;;;;;;;3.67;66.45;99666.97;4406682;32;20148;-93
2022/01/26 01:53:44;;;;;;;29.83;12.13;;;;;;;3.58;66.46;99663.63;4406531;32;20124;-94
2022/01/26 01:56:12;;;;;;;28.60;11.23;;;;;;;3.77;65.87;99659.00;4406636;32;20093;-93
2022/01/26 01:58:38;;;;;;;28.42;11.50;;;;;;;3.65;66.07;99655.72;4406500;32;20106;-92
2022/01/26 02:01:04;;;;;;;28.08;11.00;;;;;;;3.70;65.97;99659.09;4406627;32;20109;-91
2022/01/26 02:03:29;;;;;;;27.27;10.90;;;;;;;3.54;66.17;99658.44;4393822;32;20144;-92
2022/01/26 02:05:55;;;;;;;30.20;11.48;;;;;;;3.64;65.77;99660.94;4379813;32;20090;-92
2022/01/26 02:08:20;;;;;;;29.98;12.10;;;;;;;3.40;66.41;99656.84;4393530;32;20109;-92
2022/01/26 02:10:46;;;;;;;30.08;11.30;;;;;;;3.35;66.54;99673.41;4393882;32;20090;-92
2022/01/26 02:13:19;;;;;;;31.95;11.30;;;;;;;3.60;66.14;99667.91;4393473;32;20158;-92
2022/01/26 02:56:27;;;;;;;26.10;10.32;;;;;;;4.00;63.68;99646.56;4410107;32;20089;-89
2022/01/26 02:59:14;;;;;;;27.90;11.18;;;;;;;4.22;63.02;99648.84;4420113;32;20086;-91
2022/01/26 03:06:50;;;;;;;30.52;11.63;;;;;;;4.25;62.90;99648.78;4409818;32;20155;-90
2022/01/26 03:09:21;;;;;;;29.00;13.10;;;;;;;4.37;62.38;99646.00;4421312;32;20461;-91
2022/01/26 03:11:48;;;;;;;29.40;11.07;;;;;;;3.77;63.86;99635.56;4410193;32;20157;-90
2022/01/26 03:16:54;;;;;;;26.92;11.10;;;;;;;4.37;62.36;99632.97;4409996;32;20085;-90
2022/01/26 03:30:00;;;;;;;28.48;10.90;;;;;;;4.50;61.47;99626.66;4409935;32;20111;-90
2022/01/26 03:35:14;;;;;;;23.83;9.82;;;;;;;4.47;61.55;99625.84;4419771;32;20172;-88
2022/01/26 03:37:49;;;;;;;25.65;10.48;;;;;;;4.32;62.05;99630.41;4396565;32;20090;-89
2022/01/26 03:40:15;;;;;;;25.52;9.77;;;;;;;4.53;61.35;99630.97;4409794;32;20107;-90
2022/01/26 03:42:41;;;;;;;27.10;9.77;;;;;;;4.38;61.94;99633.81;4421221;32;20106;-90
2022/01/26 03:45:07;;;;;;;24.00;9.30;;;;;;;4.31;62.04;99630.47;4409848;32;20434;-89
2022/01/26 03:47:32;;;;;;;25.88;10.65;;;;;;;3.90;63.49;99627.56;4421356;32;20113;-90
2022/01/26 03:49:58;;;;;;;25.25;9.60;;;;;;;3.78;64.35;99639.91;4408819;32;20087;-91
2022/01/26 03:52:23;;;;;;;25.50;10.32;;;;;;;3.76;64.60;99644.28;4408636;32;20102;-89
2022/01/26 03:54:49;;;;;;;28.50;11.75;;;;;;;3.59;65.25;99641.88;4410007;32;20147;-89
2022/01/26 03:57:14;;;;;;;30.75;12.30;;;;;;;3.91;64.44;99646.69;4410036;32;20094;-88
2022/01/26 03:59:40;;;;;;;29.60;12.15;;;;;;;3.74;65.13;99641.69;4409931;32;20094;-90
2022/01/26 04:02:06;;;;;;;32.85;12.57;;;;;;;3.84;64.75;99634.59;4409716;32;20146;-90
2022/01/26 04:04:38;;;;;;;35.30;12.57;;;;;;;3.44;65.78;99643.81;4421120;32;20168;-90
2022/01/26 04:07:03;;;;;;;31.48;12.65;;;;;;;3.86;65.00;99638.03;4409622;32;20528;-90
2022/01/26 04:09:29;;;;;;;30.08;11.75;;;;;;;3.88;64.98;99636.28;4409396;32;20086;-90
2022/01/26 04:11:59;;;;;;;31.20;12.90;;;;;;;4.18;63.90;99641.97;4395641;32;20106;-89
2022/01/26 04:14:28;;;;;;;34.38;13.60;;;;;;;4.26;63.58;99629.66;4409582;32;20794;-89
2022/01/26 04:16:54;;;;;;;29.90;13.85;;;;;;;3.82;65.28;99646.78;4420945;32;20552;-89
2022/01/26 04:19:20;;;;;;;32.60;12.32;;;;;;;3.99;64.60;99633.53;4420755;32;20093;-90
2022/01/26 04:24:28;;;;;;;34.42;14.15;;;;;;;3.64;66.08;99646.16;4420848;32;20770;-89
2022/01/26 04:27:05;;;;;;;33.42;13.23;;;;;;;3.78;65.71;99632.94;4409668;32;20151;-89
2022/01/26 04:29:33;;;;;;;38.58;14.85;;;;;;;3.87;65.50;99634.56;4409514;32;20162;-90
2022/01/26 04:32:00;;;;;;;34.78;13.57;;;;;;;3.90;65.50;99634.50;4421094;32;20106;-90
2022/01/26 04:34:27;;;;;;;36.28;15.18;;;;;;;3.82;65.79;99636.38;4409193;32;20157;-89
2022/01/26 04:36:58;;;;;;;34.13;13.57;;;;;;;3.60;66.29;99643.63;4409262;32;20442;-90
2022/01/26 04:39:33;;;;;;;34.75;13.52;;;;;;;3.73;65.84;99629.56;4409470;32;20086;-90
2022/01/26 04:42:04;;;;;;;31.15;13.43;;;;;;;3.99;64.69;99633.53;4409551;32;20188;-92
2022/01/26 04:44:36;;;;;;;32.53;13.00;;;;;;;3.51;66.79;99647.19;4409558;32;20094;-89
2022/01/26 04:47:02;;;;;;;37.35;15.80;;;;;;;3.28;67.85;99635.31;4409759;32;20085;-90
2022/01/26 04:49:27;;;;;;;34.28;13.68;;;;;;;3.14;68.43;99631.97;4409512;32;20125;-90
2022/01/26 04:51:53;;;;;;;35.75;15.30;;;;;;;3.25;68.09;99629.28;4409213;32;20090;-91
2022/01/26 04:54:18;;;;;;;32.67;14.13;;;;;;;3.25;68.12;99621.47;4409480;32;20114;-90
2022/01/26 04:56:44;;;;;;;36.35;13.75;;;;;;;3.06;68.75;99620.78;4409395;32;20116;-90
2022/01/26 04:59:10;;;;;;;35.05;13.70;;;;;;;3.08;68.56;99619.87;4395614;32;20145;-90
2022/01/26 05:01:35;;;;;;;34.25;13.50;;;;;;;2.97;68.93;99633.91;4395440;32;20094;-89
2022/01/26 05:04:04;;;;;;;35.25;14.35;;;;;;;3.32;67.85;99623.09;4409492;32;20446;-89
2022/01/26 05:06:30;;;;;;;34.05;13.38;;;;;;;3.25;68.23;99631.88;4409268;32;20137;-90
2022/01/26 05:08:55;;;;;;;33.63;13.62;;;;;;;3.41;67.46;99622.97;4409254;32;20152;-90
2022/01/26 05:11:32;;;;;;;34.30;13.40;;;;;;;3.48;67.55;99624.66;4420794;32;20161;-90
2022/01/26 05:13:58;;;;;;;32.53;13.18;;;;;;;3.31;68.00;99627.44;4409418;32;20370;-92
2022/01/26 05:16:25;;;;;;;31.10;12.88;;;;;;;3.58;67.08;99627.13;4420425;32;20125;-91
2022/01/26 05:18:52;;;;;;;30.70;12.23;;;;;;;3.70;66.47;99620.00;4409470;32;20156;-89
2022/01/26 05:21:22;;;;;;;37.15;13.80;;;;;;;3.62;66.70;99624.47;4380749;32;20102;-90
2022/01/26 05:23:48;;;;;;;30.80;14.20;;;;;;;3.50;66.83;99620.28;4380306;32;20110;-91
2022/01/26 05:26:13;;;;;;;32.53;13.13;;;;;;;3.62;66.88;99621.84;4380373;32;20102;-90
2022/01/26 05:28:39;;;;;;;32.25;13.38;;;;;;;3.62;66.76;99619.25;4393839;32;20132;-90
2022/01/26 05:31:05;;;;;;;31.65;12.65;;;;;;;3.59;66.61;99616.69;4393981;32;20182;-92
2022/01/26 05:33:30;;;;;;;34.67;13.13;;;;;;;3.48;67.18;99622.03;4394128;32;20098;-90
2022/01/26 05:35:56;;;;;;;31.00;13.50;;;;;;;3.45;67.37;99618.59;4380301;32;20148;-91
2022/01/26 05:38:24;;;;;;;30.98;12.52;;;;;;;3.50;67.26;99622.03;4394084;32;20148;-90
2022/01/26 05:40:50;;;;;;;32.45;13.25;;;;;;;3.60;66.86;99621.03;4393717;32;20094;-91
2022/01/26 05:43:17;;;;;;;32.92;13.18;;;;;;;3.64;66.64;99621.84;4394163;32;20112;-91
2022/01/26 05:45:48;;;;;;;31.52;13.82;;;;;;;3.60;67.00;99621.03;4380142;32;20121;-91
2022/01/26 05:48:14;;;;;;;35.58;14.00;;;;;;;3.72;66.71;99609.56;4393936;32;20078;-90
2022/01/26 05:50:49;;;;;;;32.95;13.13;;;;;;;3.76;66.42;99626.03;4380233;32;20132;-89
2022/01/26 05:53:16;;;;;;;31.50;13.70;;;;;;;3.71;66.40;99621.75;4394085;32;20119;-91
2022/01/26 05:55:41;;;;;;;32.15;13.77;;;;;;;3.44;67.55;99630.78;4379860;32;20503;-91
2022/01/26 05:58:07;;;;;;;33.80;13.80;;;;;;;3.57;67.10;99626.25;4393713;32;20082;-90
2022/01/26 06:00:32;;;;;;;33.17;14.23;;;;;;;3.60;66.88;99622.78;4379571;32;20158;-90
2022/01/26 06:02:58;;;;;;;34.20;14.68;;;;;;;3.48;67.50;99629.00;4393665;32;20091;-90
2022/01/26 06:05:23;;;;;;;37.70;13.77;;;;;;;3.18;68.39;99633.66;4393562;32;20085;-92
2022/01/26 06:07:49;;;;;;;32.83;14.35;;;;;;;3.55;67.58;99638.44;4393547;32;20468;-92
2022/01/26 06:10:14;;;;;;;38.38;14.35;;;;;;;3.54;67.61;99634.13;4379790;32;20118;-91
2022/01/26 06:12:40;;;;;;;35.42;14.25;;;;;;;3.55;67.41;99638.44;4366813;32;20411;-90
2022/01/26 06:15:05;;;;;;;34.80;14.55;;;;;;;3.64;67.37;99643.53;4393487;32;20094;-91
2022/01/26 06:17:31;;;;;;;37.67;15.82;;;;;;;3.67;67.40;99642.63;4393582;32;20097;-92
2022/01/26 06:19:56;;;;;;;29.90;13.82;;;;;;;3.53;67.91;99651.50;4386464;32;20187;-90
2022/01/26 06:22:22;;;;;;;34.72;13.80;;;;;;;3.45;68.19;99640.28;4408302;32;20161;-91
2022/01/26 06:24:47;;;;;;;34.35;14.32;;;;;;;3.69;67.43;99633.06;4408618;32;20141;-91
2022/01/26 06:27:13;;;;;;;33.90;14.20;;;;;;;3.52;67.89;99625.47;4408524;32;20086;-89
2022/01/26 06:29:38;;;;;;;32.75;14.60;;;;;;;3.46;68.36;99630.75;4408665;32;20094;-90
2022/01/26 06:32:04;;;;;;;34.83;14.98;;;;;;;3.51;68.14;99629.78;4407424;32;20114;-91
2022/01/26 06:34:31;;;;;;;30.70;13.57;;;;;;;3.68;67.27;99634.81;4408354;32;20124;-89
2022/01/26 06:36:56;;;;;;;35.97;14.35;;;;;;;3.69;67.23;99633.06;4408573;32;20125;-90
2022/01/26 06:39:23;;;;;;;33.97;15.13;;;;;;;3.62;67.59;99637.50;4408411;32;20118;-91
2022/01/26 06:41:52;;;;;;;36.55;13.73;;;;;;;3.52;68.16;99644.56;4408332;32;20566;-91
2022/01/26 06:44:32;;;;;;;35.30;14.40;;;;;;;3.41;68.35;99636.00;4408345;32;20094;-93
2022/01/26 06:51:52;;;;;;;35.97;14.38;;;;;;;3.38;68.70;99636.06;4410555;32;20364;-96
2022/01/26 06:54:17;;;;;;;35.85;14.52;;;;;;;3.42;68.71;99642.06;4410218;32;20074;-93
2022/01/26 06:56:45;;;;;;;34.20;15.25;;;;;;;3.46;68.79;99639.44;4407987;32;20433;-93
2022/01/26 06:59:10;;;;;;;30.70;14.05;;;;;;;3.59;68.31;99631.44;4408369;32;20141;-95
2022/01/26 07:01:36;;;;;;;34.45;14.70;;;;;;;3.66;68.02;99636.56;4408086;32;20459;-91
2022/01/26 07:04:01;;;;;;;34.42;15.10;;;;;;;3.69;67.60;99638.25;4408053;32;20172;-93
2022/01/26 07:06:27;;;;;;;33.17;13.50;;;;;;;3.88;67.05;99626.75;4419789;32;20426;-88
2022/01/26 07:08:52;;;;;;;33.65;13.70;;;;;;;3.93;66.81;99640.53;4408017;32;20217;-90
2022/01/26 07:11:18;;;;;;;32.65;13.32;;;;;;;3.75;67.31;99633.00;4420871;32;20130;-88
2022/01/26 07:13:45;;;;;;;31.25;12.98;;;;;;;4.01;66.52;99632.63;4421038;32;20113;-87
2022/01/26 07:21:38;;;;;;;30.98;12.37;;;;;;;4.33;65.32;99619.09;4423170;32;20147;-81
2022/01/26 07:24:04;;;;;;;29.00;12.98;;;;;;;4.25;64.87;99623.59;4423033;32;20117;-89
2022/01/26 07:26:30;;;;;;;26.65;12.05;;;;;;;4.47;64.47;99628.47;4424856;32;20358;-85
2022/01/26 07:29:05;;;;;;;28.70;12.30;;;;;;;4.62;63.95;99623.00;4420680;32;20171;-81
2022/01/26 07:31:33;;;;;;;29.27;12.27;;;;;;;4.51;63.76;99633.59;4424689;32;20480;-83
2022/01/26 07:33:59;;;;;;;27.35;11.70;;;;;;;4.73;63.47;99631.50;4424973;32;20089;-84
2022/01/26 07:36:25;;;;;;;28.12;12.07;;;;;;;4.83;63.04;99633.94;4425027;32;20108;-82
2022/01/26 07:38:53;;;;;;;25.75;11.63;;;;;;;4.62;63.46;99636.03;4410490;32;20160;-85
2022/01/26 07:41:18;;;;;;;26.33;11.75;;;;;;;4.92;62.48;99629.44;4425074;32;20355;-86
2022/01/26 07:43:44;;;;;;;26.12;11.32;;;;;;;5.00;62.82;99625.78;4411139;32;20115;-83
2022/01/26 07:46:10;;;;;;;26.48;11.52;;;;;;;5.07;62.10;99627.41;4425015;32;20118;-83
2022/01/26 07:48:36;;;;;;;25.70;11.32;;;;;;;5.00;62.18;99631.03;4425415;32;20120;-83
2022/01/26 07:51:01;;;;;;;25.33;10.68;;;;;;;4.57;63.30;99631.78;4424969;32;20093;-82
2022/01/26 07:53:27;;;;;;;24.48;10.32;;;;;;;4.45;63.68;99638.91;4425453;32;20108;-83
2022/01/26 07:55:52;;;;;;;27.00;11.07;;;;;;;4.56;63.51;99640.47;4425203;32;20082;-83
2022/01/26 07:58:19;;;;;;;25.42;10.85;;;;;;;4.98;62.22;99627.56;4424864;32;20426;-83
2022/01/26 08:00:45;;;;;;;27.17;11.38;;;;;;;4.93;62.20;99638.13;4425192;32;20153;-84
2022/01/26 08:03:10;;;;;;;24.12;10.82;;;;;;;5.00;62.10;99633.63;4410741;32;20104;-84
2022/01/26 08:05:36;;;;;;;22.67;9.82;;;;;;;4.90;62.07;99633.78;4424851;32;20143;-85
2022/01/26 08:08:02;;;;;;;25.85;10.55;;;;;;;4.73;62.68;99639.34;4424599;32;20147;-86
2022/01/26 08:10:27;;;;;;;26.95;10.73;;;;;;;4.55;62.70;99631.78;4424967;32;20099;-85
2022/01/26 08:12:52;;;;;;;24.02;10.82;;;;;;;4.42;63.81;99627.66;4424883;32;20101;-87
2022/01/26 08:15:18;;;;;;;23.60;9.65;;;;;;;4.78;62.95;99628.78;4424071;32;20107;-86
2022/01/26 08:17:44;;;;;;;25.33;10.75;;;;;;;4.88;62.28;99626.87;4410976;32;20102;-84
2022/01/26 08:20:10;;;;;;;24.92;10.05;;;;;;;4.76;62.43;99620.13;4424568;32;20118;-89
2022/01/26 08:22:36;;;;;;;23.15;9.85;;;;;;;4.93;61.91;99617.22;4425324;32;20105;-87
2022/01/26 08:25:01;;;;;;;23.10;9.80;;;;;;;4.91;61.57;99611.19;4425210;32;20121;-88
2022/01/26 08:27:32;;;;;;;24.23;10.07;;;;;;;4.72;62.14;99627.16;4424076;32;20149;-86
2022/01/26 08:30:05;;;;;;;23.12;9.77;;;;;;;4.69;62.35;99623.72;4424779;32;20120;-87
2022/01/26 08:32:31;;;;;;;25.83;10.90;;;;;;;4.92;61.71;99626.81;4425131;32;20121;-87
2022/01/26 08:34:56;;;;;;;21.95;9.40;;;;;;;4.91;61.45;99632.91;4424607;32;20108;-88
2022/01/26 08:37:22;;;;;;;22.02;9.07;;;;;;;5.11;60.95;99629.94;4425225;32;20161;-87
2022/01/26 08:39:47;;;;;;;21.87;9.55;;;;;;;4.93;61.14;99619.84;4428769;32;20136;-88
2022/01/26 08:42:13;;;;;;;22.50;9.55;;;;;;;5.00;60.77;99628.41;4440464;32;20108;-88
2022/01/26 08:44:38;;;;;;;22.92;9.25;;;;;;;5.01;60.93;99630.16;4440364;32;20069;-90
2022/01/26 08:47:04;;;;;;;22.02;8.88;;;;;;;4.82;61.07;99625.25;4426419;32;20097;-88
2022/01/26 08:49:31;;;;;;;23.55;9.23;;;;;;;5.15;60.50;99630.75;4426287;32;20136;-89
2022/01/26 08:51:56;;;;;;;20.77;8.90;;;;;;;5.01;60.62;99635.37;4440879;32;20195;-88
2022/01/26 08:54:22;;;;;;;21.10;9.15;;;;;;;5.18;60.43;99638.53;4440674;32;20088;-88
2022/01/26 08:56:49;;;;;;;24.83;9.45;;;;;;;5.01;60.62;99633.59;4426732;32;20102;-88
2022/01/26 08:59:15;;;;;;;20.62;8.35;;;;;;;4.91;60.91;99632.91;4440710;32;20097;-88
2022/01/26 09:01:40;;;;;;;22.85;8.98;;;;;;;4.98;60.96;99632.81;4440705;32;20089;-88
2022/01/26 09:04:06;;;;;;;22.50;8.57;;;;;;;4.77;61.49;99642.75;4426712;32;20134;-88
2022/01/26 09:06:33;;;;;;;24.77;10.43;;;;;;;4.66;61.65;99635.09;4440681;32;20152;-88
2022/01/26 09:09:04;;;;;;;26.20;9.52;;;;;;;4.66;61.99;99637.69;4440653;32;20156;-88
2022/01/26 09:11:30;;;;;;;27.17;10.18;;;;;;;4.84;61.14;99633.91;4440645;32;20120;-88
2022/01/26 09:13:58;;;;;;;23.70;9.02;;;;;;;5.20;60.38;99638.50;4440591;32;20125;-88
2022/01/26 09:16:27;;;;;;;;;;;;;;;5.11;60.72;99639.53;4440818;32;20204;-88
2022/01/26 09:18:57;;;;;;;23.58;10.13;;;;;;;5.35;60.05;99637.31;4440487;32;20359;-87
2022/01/26 09:21:24;;;;;;;21.45;8.77;;;;;;;5.56;58.83;99630.81;4440287;32;20168;-89
2022/01/26 09:23:49;;;;;;;24.83;10.60;;;;;;;5.55;58.91;99637.78;4440303;32;20085;-88
2022/01/26 09:26:15;;;;;;;24.10;9.05;;;;;;;5.60;58.85;99641.19;4440184;32;20116;-88
2022/01/26 09:28:40;;;;;;;21.62;9.13;;;;;;;5.38;59.73;99635.50;4440143;32;20097;-88
2022/01/26 09:31:06;;;;;;;23.80;9.30;;;;;;;5.38;59.73;99635.50;4426260;32;20433;-88
2022/01/26 09:33:31;;;;;;;21.37;9.73;;;;;;;5.51;59.12;99634.38;4440286;32;20431;-88
2022/01/26 09:35:57;;;;;;;22.92;8.77;;;;;;;5.65;58.72;99621.03;4440222;32;20097;-88
2022/01/26 09:38:22;;;;;;;19.10;8.18;;;;;;;5.62;58.57;99615.00;4440034;32;20090;-88
2022/01/26 09:40:49;;;;;;;21.37;8.65;;;;;;;5.90;57.77;99613.50;4426175;32;20108;-88
2022/01/26 09:43:16;;;;;;;23.15;9.55;;;;;;;5.77;57.98;99625.13;4439995;32;20081;-88
2022/01/26 09:45:42;;;;;;;19.65;8.88;;;;;;;5.89;57.48;99622.25;4440129;32;20116;-88
2022/01/26 09:48:08;;;;;;;20.37;8.63;;;;;;;5.70;58.21;99621.78;4438971;32;20457;-89
2022/01/26 09:50:35;;;;;;;21.85;8.85;;;;;;;5.34;59.07;99622.56;4440048;32;20123;-88
2022/01/26 09:53:00;;;;;;;21.33;9.40;;;;;;;5.36;59.34;99623.38;4440000;32;20437;-88
2022/01/26 09:55:26;;;;;;;23.25;8.95;;;;;;;5.30;59.36;99627.84;4439918;32;20108;-88
2022/01/26 09:57:58;;;;;;;23.15;9.00;;;;;;;5.10;60.00;99615.16;4440234;32;20170;-88
2022/01/26 10:00:25;;;;;;;23.30;9.55;;;;;;;5.49;59.12;99614.41;4439960;32;20085;-88
2022/01/26 10:03:05;;;;;;;21.20;8.85;;;;;;;5.69;58.54;99608.75;4426155;32;20481;-88
2022/01/26 10:05:40;;;;;;;21.27;8.95;;;;;;;5.66;58.48;99614.91;4426110;32;20109;-87
2022/01/26 10:08:29;;;;;;;23.83;9.45;;;;;;;5.57;58.83;99615.09;4440052;32;20134;-89
2022/01/26 10:17:12;;;;;;;21.75;8.45;;;;;;;5.61;58.54;99610.69;4428056;32;20510;-88
2022/01/26 10:19:18;;;;;;;20.35;7.97;;;;;;;6.08;57.04;99611.41;4439489;32;20124;-88
2022/01/26 10:21:53;;;;;;;22.45;9.10;;;;;;;5.69;58.10;99612.22;4425732;32;20097;-88
2022/01/26 10:24:20;;;;;;;21.50;8.70;;;;;;;5.75;58.11;99613.00;4439691;32;20445;-88
2022/01/26 10:26:48;;;;;;;20.77;8.13;;;;;;;6.18;56.85;99626.00;4425753;32;20481;-88
2022/01/26 10:29:15;;;;;;;21.95;9.50;;;;;;;5.56;58.26;99617.75;4439373;32;20492;-88
2022/01/26 10:31:41;;;;;;;21.20;9.13;;;;;;;5.95;57.57;99599.47;4425657;32;20089;-89
2022/01/26 10:34:12;;;;;;;21.85;8.38;;;;;;;5.99;57.01;99585.44;4425390;32;20089;-88
2022/01/26 10:36:40;;;;;;;22.48;8.27;;;;;;;5.69;57.97;99601.75;4439457;32;20106;-89
2022/01/26 10:39:11;;;;;;;19.55;8.85;;;;;;;5.87;57.55;99591.78;4439410;32;20093;-88
2022/01/26 10:41:38;;;;;;;23.45;9.10;;;;;;;5.34;59.41;99604.25;4439466;32;20081;-88
2022/01/26 10:44:04;;;;;;;21.95;9.15;;;;;;;5.84;57.90;99603.19;4425436;32;20109;-89
2022/01/26 10:46:34;;;;;;;19.73;8.65;;;;;;;5.59;58.77;99596.78;4439175;32;20097;-88
2022/01/26 10:54:36;;;;;;;23.83;9.88;;;;;;;6.04;57.20;99578.38;4425413;32;20093;-89
2022/01/26 10:57:10;;;;;;;21.35;8.85;;;;;;;6.00;57.07;99574.97;4439145;32;20144;-89
2022/01/26 10:59:47;;;;;;;20.80;8.73;;;;;;;5.86;57.68;99583.09;4426647;32;20144;-89
2022/01/26 11:02:13;;;;;;;20.98;9.05;;;;;;;5.76;57.85;99580.75;4441328;32;20448;-88
2022/01/26 11:04:40;;;;;;;19.95;8.57;;;;;;;5.74;57.89;99583.38;4441183;32;20369;-89
2022/01/26 11:07:10;;;;;;;19.45;8.55;;;;;;;6.19;56.74;99579.78;4441287;32;20097;-89
2022/01/26 11:09:37;;;;;;;20.65;8.13;;;;;;;5.96;57.23;99590.78;4427163;32;20101;-89
2022/01/26 11:12:04;;;;;;;19.30;8.32;;;;;;;5.55;57.98;99588.13;4441063;32;20168;-89
2022/01/26 11:14:45;;;;;;;18.98;7.78;;;;;;;5.42;58.60;99584.91;4441045;32;20476;-88
2022/01/26 11:17:22;;;;;;;20.80;8.68;;;;;;;5.56;58.21;99589.84;4440887;32;20523;-89
2022/01/26 11:19:48;;;;;;;17.75;7.00;;;;;;;5.60;57.74;99586.31;4426956;32;20159;-88
2022/01/26 11:22:14;;;;;;;19.65;8.13;;;;;;;5.36;58.34;99592.88;4441065;32;20433;-88
2022/01/26 11:24:46;;;;;;;20.15;7.70;;;;;;;5.49;58.20;99596.13;4441131;32;20198;-89
2022/01/26 11:27:12;;;;;;;19.48;7.95;;;;;;;5.27;58.87;99599.16;4440968;32;20097;-88
2022/01/26 11:29:42;;;;;;;18.95;7.55;;;;;;;5.57;57.96;99588.97;4441002;32;20101;-88
2022/01/26 11:32:24;;;;;;;19.12;7.57;;;;;;;5.70;57.64;99594.81;4441071;32;20086;-88
2022/01/26 11:34:52;;;;;;;17.15;6.82;;;;;;;6.02;56.60;99595.84;4441298;32;20100;-88
2022/01/26 11:37:27;;;;;;;16.70;6.60;;;;;;;5.69;57.13;99586.06;4441235;32;20160;-88
2022/01/26 11:45:19;;;;;;;18.75;7.70;;;;;;;5.83;57.05;99587.53;4441023;32;20089;-89
2022/01/26 11:48:17;;;;;;;19.63;8.43;;;;;;;5.88;56.69;99580.44;4440957;32;20128;-89
2022/01/26 11:50:42;;;;;;;20.30;7.72;;;;;;;6.09;56.25;99574.75;4432753;32;20492;-89
2022/01/26 11:53:16;;;;;;;20.42;8.10;;;;;;;6.51;55.15;99589.47;4441132;32;20107;-89
2022/01/26 11:55:47;;;;;;;19.15;7.62;;;;;;;6.52;55.10;99585.91;4441235;32;20435;-89
2022/01/26 11:58:27;;;;;;;18.85;7.85;;;;;;;6.64;54.54;99589.97;4441198;32;20189;-88
2022/01/26 12:01:14;;;;;;;21.10;7.70;;;;;;;6.96;53.95;99583.06;4440896;32;20132;-89
2022/01/26 12:03:56;;;;;;;19.75;7.78;;;;;;;6.76;53.80;99601.91;4440845;32;20118;-88
2022/01/26 12:06:35;;;;;;;18.62;7.40;;;;;;;7.06;53.48;99574.03;4440886;32;20073;-89
2022/01/26 12:09:00;;;;;;;16.65;6.80;;;;;;;7.09;53.30;99568.72;4427335;32;20097;-89
2022/01/26 12:11:29;;;;;;;19.67;7.53;;;;;;;7.09;53.02;99568.72;4440329;32;20160;-89
2022/01/26 12:13:59;;;;;;;19.65;8.10;;;;;;;7.34;52.63;99558.41;4441014;32;20160;-89
2022/01/26 12:16:37;;;;;;;18.42;7.65;;;;;;;7.55;52.04;99556.91;4426968;32;20089;-88
2022/01/26 12:38:26;;;;;;;;;;;;;;;7.51;51.83;99534.28;4377923;32;20106;-89
2022/01/26 12:43:47;;;;;;;15.73;6.12;;;;;;;7.50;51.50;99529.97;4377735;32;20462;-88
2022/01/26 12:46:21;;;;;;;17.77;7.12;;;;;;;7.25;52.39;99520.19;4377562;32;20198;-88
2022/01/26 12:48:57;;;;;;;17.37;6.60;;;;;;;7.55;51.85;99535.94;4377488;32;20082;-88
2022/01/26 12:51:23;;;;;;;15.77;5.82;;;;;;;7.64;51.49;99519.91;4377576;32;20166;-88
2022/01/26 12:53:53;;;;;;;16.77;6.60;;;;;;;7.66;51.26;99515.47;4377426;32;20122;-89
2022/01/26 12:56:19;;;;;;;17.83;6.15;;;;;;;7.78;51.13;99518.63;4377414;32;20090;-88
2022/01/26 12:58:44;;;;;;;18.48;6.87;;;;;;;7.61;51.22;99517.41;4377331;32;20166;-89
2022/01/26 13:01:15;;;;;;;19.70;6.43;;;;;;;7.66;51.01;99515.47;4377225;32;20118;-88
2022/01/26 13:03:41;;;;;;;16.58;6.03;;;;;;;7.54;51.37;99518.47;4377446;32;20130;-88
2022/01/26 13:06:22;;;;;;;14.57;5.78;;;;;;;7.47;51.42;99527.44;4377313;32;20113;-89
2022/01/26 13:08:51;;;;;;;19.05;6.40;;;;;;;7.56;51.36;99531.53;4377308;32;20102;-88
2022/01/26 13:11:26;;;;;;;16.50;6.65;;;;;;;7.68;50.77;99518.91;4383621;32;20098;-88
2022/01/26 13:14:24;;;;;;;16.67;6.62;;;;;;;7.58;50.84;99524.50;4413705;32;20109;-89
2022/01/26 13:17:17;;;;;;;17.00;6.10;;;;;;;7.73;50.75;99524.03;4440472;32;20077;-89
2022/01/26 13:22:56;;;;;;;17.90;6.90;;;;;;;7.85;50.39;99522.78;4440318;32;20101;-88
2022/01/26 13:36:12;;;;;;;17.42;6.18;;;;;;;6.94;52.75;99522.00;4428378;32;20131;-88
2022/01/26 13:41:54;;;;;;;16.37;6.53;;;;;;;7.34;51.72;99508.59;4407155;32;20125;-89
2022/01/26 14:00:31;;;;;;;17.30;5.85;;;;;;;6.39;53.95;99506.00;4407189;32;20115;-89
2022/01/26 14:02:59;;;;;;;16.45;6.45;;;;;;;6.52;53.70;99503.94;4407044;32;20229;-89
2022/01/26 14:05:25;;;;;;;18.30;7.55;;;;;;;6.51;53.62;99505.69;4407077;32;20118;-90
2022/01/26 14:07:54;;;;;;;15.35;6.18;;;;;;;5.86;55.45;99511.63;4406925;32;20136;-89
2022/01/26 14:10:26;;;;;;;16.83;6.55;;;;;;;5.80;55.64;99522.25;4406918;32;20086;-89
2022/01/26 14:12:51;;;;;;;19.02;6.80;;;;;;;5.78;55.73;99519.66;4406921;32;20087;-89
2022/01/26 14:15:35;;;;;;;18.30;6.47;;;;;;;5.40;56.77;99520.53;4418038;32;20096;-88
2022/01/26 14:18:09;;;;;;;19.85;7.62;;;;;;;5.62;56.19;99518.28;4415176;32;20567;-88
2022/01/26 14:25:58;;;;;;;16.85;6.62;;;;;;;5.84;55.55;99509.06;4406897;32;20133;-88
2022/01/26 14:28:30;;;;;;;16.27;6.57;;;;;;;5.94;55.29;99506.22;4406597;32;20121;-89
2022/01/26 14:31:12;;;;;;;17.67;7.03;;;;;;;5.84;55.40;99513.44;4406797;32;20176;-88
2022/01/26 14:34:07;;;;;;;16.12;6.47;;;;;;;5.79;55.64;99531.81;4407219;32;20458;-88
2022/01/26 14:36:49;;;;;;;20.85;7.55;;;;;;;5.29;56.82;99521.63;4408648;32;20168;-88
2022/01/26 14:55:53;;;;;;;19.58;6.97;;;;;;;5.02;57.87;99520.44;4378240;32;20111;-89
2022/01/26 15:44:19;;;;;;;19.42;6.93;;;;;;;4.94;58.63;99538.00;4408174;32;20220;-87